sensor_id;sensor_type;location;lat;lon;timestamp;temperature;humidity
19017;DHT22;9641;51.494;6.670;2023-06-22T00:01:18;22.20;9.50
19017;DHT22;9641;51.494;6.670;2023-06-22T00:03:44;22.20;99.90
19017;DHT22;9641;51.494;6.670;2023-06-22T00:06:13;22.20;99.90
19017;DHT22;9641;51.494;6.670;2023-06-22T00:08:40;22.20;1.00
19017;DHT22;9641;51.494;6.670;2023-06-22T00:11:07;22.20;1.00
19017;DHT22;9641;51.494;6.670;2023-06-22T00:13:33;22.30;1.00
19017;DHT22;9641;51.494;6.670;2023-06-22T00:16:00;22.20;99.90
19017;DHT22;9641;51.494;6.670;2023-06-22T00:18:27;22.20;1.00
19017;DHT22;9641;51.494;6.670;2023-06-22T00:20:56;22.10;99.90
19017;DHT22;9641;51.494;6.670;2023-06-22T00:23:27;22.20;1.00
19017;DHT22;9641;51.494;6.670;2023-06-22T00:25:54;22.10;99.90
19017;DHT22;9641;51.494;6.670;2023-06-22T00:28:21;22.10;1.00
19017;DHT22;9641;51.494;6.670;2023-06-22T00:30:48;22.00;99.90
19017;DHT22;9641;51.494;6.670;2023-06-22T00:33:15;22.00;1.00
19017;DHT22;9641;51.494;6.670;2023-06-22T00:35:42;21.90;1.00
19017;DHT22;9641;51.494;6.670;2023-06-22T00:38:09;21.90;1.00
19017;DHT22;9641;51.494;6.670;2023-06-22T00:40:37;21.90;99.90
19017;DHT22;9641;51.494;6.670;2023-06-22T00:43:05;21.90;1.00
19017;DHT22;9641;51.494;6.670;2023-06-22T00:45:32;21.90;1.00
19017;DHT22;9641;51.494;6.670;2023-06-22T00:47:59;21.80;1.00
19017;DHT22;9641;51.494;6.670;2023-06-22T00:50:28;21.70;1.00
19017;DHT22;9641;51.494;6.670;2023-06-22T00:53:00;21.60;1.00
19017;DHT22;9641;51.494;6.670;2023-06-22T00:55:29;21.50;99.90
19017;DHT22;9641;51.494;6.670;2023-06-22T00:57:57;21.50;1.00
19017;DHT22;9641;51.494;6.670;2023-06-22T01:00:25;21.40;1.00
19017;DHT22;9641;51.494;6.670;2023-06-22T01:02:53;21.50;1.00
19017;DHT22;9641;51.494;6.670;2023-06-22T01:05:21;21.40;1.00
19017;DHT22;9641;51.494;6.670;2023-06-22T01:07:56;21.40;1.00
19017;DHT22;9641;51.494;6.670;2023-06-22T01:10:28;21.40;1.00
19017;DHT22;9641;51.494;6.670;2023-06-22T01:13:01;21.30;1.00
19017;DHT22;9641;51.494;6.670;2023-06-22T01:15:31;21.30;1.00
19017;DHT22;9641;51.494;6.670;2023-06-22T01:17:59;21.20;1.00
19017;DHT22;9641;51.494;6.670;2023-06-22T01:20:30;21.20;1.00
19017;DHT22;9641;51.494;6.670;2023-06-22T01:23:05;21.10;1.00
19017;DHT22;9641;51.494;6.670;2023-06-22T01:25:43;21.10;1.00
19017;DHT22;9641;51.494;6.670;2023-06-22T01:30:53;21.10;1.00
19017;DHT22;9641;51.494;6.670;2023-06-22T01:33:29;21.10;1.00
19017;DHT22;9641;51.494;6.670;2023-06-22T01:35:57;21.10;1.00
19017;DHT22;9641;51.494;6.670;2023-06-22T01:38:25;21.00;1.00
19017;DHT22;9641;51.494;6.670;2023-06-22T01:40:53;21.00;1.00
19017;DHT22;9641;51.494;6.670;2023-06-22T01:43:21;21.00;1.00
19017;DHT22;9641;51.494;6.670;2023-06-22T01:45:51;21.00;1.00
19017;DHT22;9641;51.494;6.670;2023-06-22T01:48:19;21.00;1.00
19017;DHT22;9641;51.494;6.670;2023-06-22T01:50:47;20.90;1.00
19017;DHT22;9641;51.494;6.670;2023-06-22T01:53:14;20.90;9.00
19017;DHT22;9641;51.494;6.670;2023-06-22T01:55:41;20.80;11.20
19017;DHT22;9641;51.494;6.670;2023-06-22T01:58:08;20.80;1.00
19017;DHT22;9641;51.494;6.670;2023-06-22T02:00:37;20.80;36.90
19017;DHT22;9641;51.494;6.670;2023-06-22T02:03:11;20.70;27.60
19017;DHT22;9641;51.494;6.670;2023-06-22T02:05:53;20.60;30.90
19017;DHT22;9641;51.494;6.670;2023-06-22T02:08:24;20.70;59.70
19017;DHT22;9641;51.494;6.670;2023-06-22T02:10:52;20.60;53.70
19017;DHT22;9641;51.494;6.670;2023-06-22T02:13:21;20.60;47.80
19017;DHT22;9641;51.494;6.670;2023-06-22T02:15:49;20.60;73.00
19017;DHT22;9641;51.494;6.670;2023-06-22T02:18:18;20.60;75.40
19017;DHT22;9641;51.494;6.670;2023-06-22T02:20:46;20.70;77.00
19017;DHT22;9641;51.494;6.670;2023-06-22T02:23:14;20.70;90.00
19017;DHT22;9641;51.494;6.670;2023-06-22T02:25:41;20.70;60.00
19017;DHT22;9641;51.494;6.670;2023-06-22T02:28:10;20.70;68.90
19017;DHT22;9641;51.494;6.670;2023-06-22T02:30:37;20.60;79.10
19017;DHT22;9641;51.494;6.670;2023-06-22T02:33:06;20.60;86.90
19017;DHT22;9641;51.494;6.670;2023-06-22T02:35:34;20.60;91.80
19017;DHT22;9641;51.494;6.670;2023-06-22T02:38:03;20.60;89.40
19017;DHT22;9641;51.494;6.670;2023-06-22T02:40:30;20.60;93.50
19017;DHT22;9641;51.494;6.670;2023-06-22T02:42:57;20.50;93.50
19017;DHT22;9641;51.494;6.670;2023-06-22T02:45:27;20.60;99.90
19017;DHT22;9641;51.494;6.670;2023-06-22T02:47:54;20.60;94.60
19017;DHT22;9641;51.494;6.670;2023-06-22T02:50:21;20.60;92.90
19017;DHT22;9641;51.494;6.670;2023-06-22T02:52:50;20.70;90.40
19017;DHT22;9641;51.494;6.670;2023-06-22T02:55:17;20.60;75.00
19017;DHT22;9641;51.494;6.670;2023-06-22T02:57:52;20.70;75.00
19017;DHT22;9641;51.494;6.670;2023-06-22T03:00:19;20.70;85.90
19017;DHT22;9641;51.494;6.670;2023-06-22T03:02:48;20.70;80.90
19017;DHT22;9641;51.494;6.670;2023-06-22T03:05:16;20.70;79.00
19017;DHT22;9641;51.494;6.670;2023-06-22T03:07:44;20.60;78.80
19017;DHT22;9641;51.494;6.670;2023-06-22T03:10:14;20.60;82.00
19017;DHT22;9641;51.494;6.670;2023-06-22T03:12:42;20.60;88.10
19017;DHT22;9641;51.494;6.670;2023-06-22T03:15:11;20.50;92.30
19017;DHT22;9641;51.494;6.670;2023-06-22T03:17:39;20.50;99.90
19017;DHT22;9641;51.494;6.670;2023-06-22T03:20:08;20.50;99.90
19017;DHT22;9641;51.494;6.670;2023-06-22T03:22:36;20.50;99.90
19017;DHT22;9641;51.494;6.670;2023-06-22T03:25:05;20.50;99.90
19017;DHT22;9641;51.494;6.670;2023-06-22T03:27:38;20.50;99.90
19017;DHT22;9641;51.494;6.670;2023-06-22T03:30:08;20.50;99.50
19017;DHT22;9641;51.494;6.670;2023-06-22T03:32:35;20.40;99.90
19017;DHT22;9641;51.494;6.670;2023-06-22T03:35:05;20.40;99.90
19017;DHT22;9641;51.494;6.670;2023-06-22T03:37:34;20.40;99.90
19017;DHT22;9641;51.494;6.670;2023-06-22T03:40:01;20.30;99.90
19017;DHT22;9641;51.494;6.670;2023-06-22T03:42:30;20.30;99.90
19017;DHT22;9641;51.494;6.670;2023-06-22T03:44:59;20.30;99.90
19017;DHT22;9641;51.494;6.670;2023-06-22T03:47:26;20.30;99.90
19017;DHT22;9641;51.494;6.670;2023-06-22T03:49:53;20.30;99.90
19017;DHT22;9641;51.494;6.670;2023-06-22T03:52:20;20.30;99.90
19017;DHT22;9641;51.494;6.670;2023-06-22T03:54:48;20.40;99.90
19017;DHT22;9641;51.494;6.670;2023-06-22T03:57:15;20.30;99.90
19017;DHT22;9641;51.494;6.670;2023-06-22T03:59:42;20.30;99.90
19017;DHT22;9641;51.494;6.670;2023-06-22T04:02:10;20.30;99.90
19017;DHT22;9641;51.494;6.670;2023-06-22T04:04:38;20.30;99.90
19017;DHT22;9641;51.494;6.670;2023-06-22T04:07:05;20.30;99.90
19017;DHT22;9641;51.494;6.670;2023-06-22T04:09:32;20.30;99.90
19017;DHT22;9641;51.494;6.670;2023-06-22T04:11:59;20.40;99.90
19017;DHT22;9641;51.494;6.670;2023-06-22T04:14:25;20.40;99.90
19017;DHT22;9641;51.494;6.670;2023-06-22T04:16:52;20.50;99.90
19017;DHT22;9641;51.494;6.670;2023-06-22T04:19:20;20.50;99.90
19017;DHT22;9641;51.494;6.670;2023-06-22T04:21:47;20.60;99.90
19017;DHT22;9641;51.494;6.670;2023-06-22T04:24:15;20.60;99.90
19017;DHT22;9641;51.494;6.670;2023-06-22T04:26:42;20.70;99.90
19017;DHT22;9641;51.494;6.670;2023-06-22T04:29:10;20.70;99.90
19017;DHT22;9641;51.494;6.670;2023-06-22T04:31:37;20.70;99.90
19017;DHT22;9641;51.494;6.670;2023-06-22T04:34:05;20.70;99.90
19017;DHT22;9641;51.494;6.670;2023-06-22T04:36:36;20.70;99.90
19017;DHT22;9641;51.494;6.670;2023-06-22T04:39:05;20.80;99.90
19017;DHT22;9641;51.494;6.670;2023-06-22T04:41:32;20.80;99.90
19017;DHT22;9641;51.494;6.670;2023-06-22T04:44:08;20.80;99.90
19017;DHT22;9641;51.494;6.670;2023-06-22T04:46:36;20.80;99.90
19017;DHT22;9641;51.494;6.670;2023-06-22T04:49:04;20.90;99.90
19017;DHT22;9641;51.494;6.670;2023-06-22T04:51:39;20.80;99.90
19017;DHT22;9641;51.494;6.670;2023-06-22T04:54:06;20.80;99.90
19017;DHT22;9641;51.494;6.670;2023-06-22T04:56:33;20.90;99.90
19017;DHT22;9641;51.494;6.670;2023-06-22T04:59:00;20.90;99.90
19017;DHT22;9641;51.494;6.670;2023-06-22T05:01:28;20.90;99.90
19017;DHT22;9641;51.494;6.670;2023-06-22T05:03:57;21.00;99.90
19017;DHT22;9641;51.494;6.670;2023-06-22T05:06:26;21.00;99.90
19017;DHT22;9641;51.494;6.670;2023-06-22T05:08:56;21.00;99.90
19017;DHT22;9641;51.494;6.670;2023-06-22T05:11:24;21.10;99.60
19017;DHT22;9641;51.494;6.670;2023-06-22T05:13:51;21.10;99.40
19017;DHT22;9641;51.494;6.670;2023-06-22T05:16:18;21.10;93.40
19017;DHT22;9641;51.494;6.670;2023-06-22T05:18:51;21.10;78.00
19017;DHT22;9641;51.494;6.670;2023-06-22T05:21:21;21.10;77.70
19017;DHT22;9641;51.494;6.670;2023-06-22T05:23:48;21.10;58.20
19017;DHT22;9641;51.494;6.670;2023-06-22T05:26:16;21.10;68.20
19017;DHT22;9641;51.494;6.670;2023-06-22T05:28:43;21.00;66.00
19017;DHT22;9641;51.494;6.670;2023-06-22T05:31:11;21.00;79.00
19017;DHT22;9641;51.494;6.670;2023-06-22T05:33:39;21.00;59.50
19017;DHT22;9641;51.494;6.670;2023-06-22T05:36:06;21.00;76.40
19017;DHT22;9641;51.494;6.670;2023-06-22T05:38:33;21.00;74.00
19017;DHT22;9641;51.494;6.670;2023-06-22T05:41:00;21.00;81.10
19017;DHT22;9641;51.494;6.670;2023-06-22T05:43:28;21.00;81.40
19017;DHT22;9641;51.494;6.670;2023-06-22T05:45:55;21.00;73.70
19017;DHT22;9641;51.494;6.670;2023-06-22T05:48:23;21.00;94.70
19017;DHT22;9641;51.494;6.670;2023-06-22T05:50:50;21.00;99.90
19017;DHT22;9641;51.494;6.670;2023-06-22T05:53:17;21.00;99.90
19017;DHT22;9641;51.494;6.670;2023-06-22T05:55:44;21.00;99.90
19017;DHT22;9641;51.494;6.670;2023-06-22T05:58:11;21.00;99.90
19017;DHT22;9641;51.494;6.670;2023-06-22T06:00:42;21.00;99.90
19017;DHT22;9641;51.494;6.670;2023-06-22T06:03:09;21.00;99.90
19017;DHT22;9641;51.494;6.670;2023-06-22T06:05:37;21.00;99.90
19017;DHT22;9641;51.494;6.670;2023-06-22T06:08:05;21.00;99.90
19017;DHT22;9641;51.494;6.670;2023-06-22T06:10:33;20.90;99.90
19017;DHT22;9641;51.494;6.670;2023-06-22T06:13:00;20.90;99.90
19017;DHT22;9641;51.494;6.670;2023-06-22T06:15:29;21.00;99.90
19017;DHT22;9641;51.494;6.670;2023-06-22T06:17:58;20.90;99.90
19017;DHT22;9641;51.494;6.670;2023-06-22T06:20:26;20.90;99.90
19017;DHT22;9641;51.494;6.670;2023-06-22T06:22:53;20.90;99.90
19017;DHT22;9641;51.494;6.670;2023-06-22T06:25:20;20.70;99.90
19017;DHT22;9641;51.494;6.670;2023-06-22T06:27:50;20.60;99.90
19017;DHT22;9641;51.494;6.670;2023-06-22T06:30:21;20.50;99.90
19017;DHT22;9641;51.494;6.670;2023-06-22T06:32:48;20.40;99.90
19017;DHT22;9641;51.494;6.670;2023-06-22T06:35:17;20.30;99.90
19017;DHT22;9641;51.494;6.670;2023-06-22T06:37:46;20.30;99.90
19017;DHT22;9641;51.494;6.670;2023-06-22T06:40:14;20.30;99.90
19017;DHT22;9641;51.494;6.670;2023-06-22T06:42:43;20.40;99.90
19017;DHT22;9641;51.494;6.670;2023-06-22T06:45:11;20.30;99.90
19017;DHT22;9641;51.494;6.670;2023-06-22T06:47:38;20.40;99.90
19017;DHT22;9641;51.494;6.670;2023-06-22T06:50:06;20.40;99.90
19017;DHT22;9641;51.494;6.670;2023-06-22T06:52:35;20.40;99.90
19017;DHT22;9641;51.494;6.670;2023-06-22T06:55:02;20.40;99.90
19017;DHT22;9641;51.494;6.670;2023-06-22T06:57:30;20.40;99.90
19017;DHT22;9641;51.494;6.670;2023-06-22T06:59:59;20.50;99.90
19017;DHT22;9641;51.494;6.670;2023-06-22T07:02:27;20.40;99.90
19017;DHT22;9641;51.494;6.670;2023-06-22T07:04:54;20.50;99.90
19017;DHT22;9641;51.494;6.670;2023-06-22T07:07:22;20.60;99.90
19017;DHT22;9641;51.494;6.670;2023-06-22T07:09:50;20.60;99.90
19017;DHT22;9641;51.494;6.670;2023-06-22T07:12:17;20.60;99.90
19017;DHT22;9641;51.494;6.670;2023-06-22T07:14:44;20.70;99.90
19017;DHT22;9641;51.494;6.670;2023-06-22T07:17:11;20.80;99.90
19017;DHT22;9641;51.494;6.670;2023-06-22T07:19:37;20.90;99.90
19017;DHT22;9641;51.494;6.670;2023-06-22T07:22:04;20.90;99.90
19017;DHT22;9641;51.494;6.670;2023-06-22T07:24:31;21.00;99.90
19017;DHT22;9641;51.494;6.670;2023-06-22T07:27:00;21.10;99.90
19017;DHT22;9641;51.494;6.670;2023-06-22T07:29:28;21.20;99.90
19017;DHT22;9641;51.494;6.670;2023-06-22T07:31:55;21.20;99.90
19017;DHT22;9641;51.494;6.670;2023-06-22T07:34:22;21.10;99.90
19017;DHT22;9641;51.494;6.670;2023-06-22T07:36:49;21.10;99.90
19017;DHT22;9641;51.494;6.670;2023-06-22T07:39:16;21.10;99.90
19017;DHT22;9641;51.494;6.670;2023-06-22T07:41:43;21.10;99.90
19017;DHT22;9641;51.494;6.670;2023-06-22T07:44:11;21.20;99.90
19017;DHT22;9641;51.494;6.670;2023-06-22T07:46:38;21.20;99.90
19017;DHT22;9641;51.494;6.670;2023-06-22T07:49:05;21.20;99.90
19017;DHT22;9641;51.494;6.670;2023-06-22T07:51:33;21.20;99.90
19017;DHT22;9641;51.494;6.670;2023-06-22T07:54:00;21.20;99.90
19017;DHT22;9641;51.494;6.670;2023-06-22T07:56:27;21.10;99.90
19017;DHT22;9641;51.494;6.670;2023-06-22T07:58:54;21.20;99.90
19017;DHT22;9641;51.494;6.670;2023-06-22T08:01:25;21.20;99.90
19017;DHT22;9641;51.494;6.670;2023-06-22T08:03:51;21.30;99.90
19017;DHT22;9641;51.494;6.670;2023-06-22T08:06:18;21.30;99.90
19017;DHT22;9641;51.494;6.670;2023-06-22T08:08:45;21.20;99.90
19017;DHT22;9641;51.494;6.670;2023-06-22T08:11:13;21.20;99.90
19017;DHT22;9641;51.494;6.670;2023-06-22T08:13:40;21.30;99.90
19017;DHT22;9641;51.494;6.670;2023-06-22T08:16:07;21.30;99.90
19017;DHT22;9641;51.494;6.670;2023-06-22T08:18:35;21.40;99.90
19017;DHT22;9641;51.494;6.670;2023-06-22T08:21:02;21.50;99.90
19017;DHT22;9641;51.494;6.670;2023-06-22T08:23:29;21.50;99.90
19017;DHT22;9641;51.494;6.670;2023-06-22T08:25:56;21.50;99.90
19017;DHT22;9641;51.494;6.670;2023-06-22T08:28:23;21.50;99.90
19017;DHT22;9641;51.494;6.670;2023-06-22T08:30:50;21.50;99.90
19017;DHT22;9641;51.494;6.670;2023-06-22T08:33:17;21.50;99.90
19017;DHT22;9641;51.494;6.670;2023-06-22T08:35:45;21.50;99.90
19017;DHT22;9641;51.494;6.670;2023-06-22T08:38:12;21.50;99.90
19017;DHT22;9641;51.494;6.670;2023-06-22T08:40:41;21.60;99.90
19017;DHT22;9641;51.494;6.670;2023-06-22T08:43:08;21.60;99.90
19017;DHT22;9641;51.494;6.670;2023-06-22T08:45:34;21.60;99.90
19017;DHT22;9641;51.494;6.670;2023-06-22T08:48:01;21.60;99.90
19017;DHT22;9641;51.494;6.670;2023-06-22T08:50:28;21.60;99.90
19017;DHT22;9641;51.494;6.670;2023-06-22T08:52:56;21.60;99.90
19017;DHT22;9641;51.494;6.670;2023-06-22T08:55:23;21.60;99.90
19017;DHT22;9641;51.494;6.670;2023-06-22T08:57:50;21.70;99.90
19017;DHT22;9641;51.494;6.670;2023-06-22T09:00:18;21.70;99.90
19017;DHT22;9641;51.494;6.670;2023-06-22T09:02:46;21.70;99.90
19017;DHT22;9641;51.494;6.670;2023-06-22T09:05:13;21.70;99.90
19017;DHT22;9641;51.494;6.670;2023-06-22T09:07:40;21.70;99.90
19017;DHT22;9641;51.494;6.670;2023-06-22T09:10:12;21.70;99.90
19017;DHT22;9641;51.494;6.670;2023-06-22T09:12:39;21.70;99.90
19017;DHT22;9641;51.494;6.670;2023-06-22T09:15:07;21.70;99.90
19017;DHT22;9641;51.494;6.670;2023-06-22T09:17:34;21.80;99.90
19017;DHT22;9641;51.494;6.670;2023-06-22T09:20:03;21.80;99.90
19017;DHT22;9641;51.494;6.670;2023-06-22T09:22:31;21.90;99.90
19017;DHT22;9641;51.494;6.670;2023-06-22T09:24:58;21.90;99.90
19017;DHT22;9641;51.494;6.670;2023-06-22T09:27:27;21.90;99.90
19017;DHT22;9641;51.494;6.670;2023-06-22T09:29:54;22.00;99.90
19017;DHT22;9641;51.494;6.670;2023-06-22T09:32:24;22.00;99.90
19017;DHT22;9641;51.494;6.670;2023-06-22T09:34:51;22.10;99.90
19017;DHT22;9641;51.494;6.670;2023-06-22T09:37:18;22.20;99.90
19017;DHT22;9641;51.494;6.670;2023-06-22T09:39:45;22.40;99.90
19017;DHT22;9641;51.494;6.670;2023-06-22T09:42:12;22.50;99.90
19017;DHT22;9641;51.494;6.670;2023-06-22T09:44:41;22.60;99.90
19017;DHT22;9641;51.494;6.670;2023-06-22T09:47:08;22.70;99.90
19017;DHT22;9641;51.494;6.670;2023-06-22T09:49:35;22.70;99.90
19017;DHT22;9641;51.494;6.670;2023-06-22T09:52:02;22.70;99.90
19017;DHT22;9641;51.494;6.670;2023-06-22T09:54:29;22.70;99.90
19017;DHT22;9641;51.494;6.670;2023-06-22T09:56:57;22.80;99.90
19017;DHT22;9641;51.494;6.670;2023-06-22T09:59:24;22.90;99.90
19017;DHT22;9641;51.494;6.670;2023-06-22T10:01:52;23.10;99.90
19017;DHT22;9641;51.494;6.670;2023-06-22T10:04:19;23.30;99.90
19017;DHT22;9641;51.494;6.670;2023-06-22T10:06:46;23.50;99.90
19017;DHT22;9641;51.494;6.670;2023-06-22T10:09:13;23.80;99.90
19017;DHT22;9641;51.494;6.670;2023-06-22T10:11:40;24.20;99.90
19017;DHT22;9641;51.494;6.670;2023-06-22T10:14:07;24.50;99.90
19017;DHT22;9641;51.494;6.670;2023-06-22T10:16:36;24.80;95.20
19017;DHT22;9641;51.494;6.670;2023-06-22T10:19:04;24.90;47.90
19017;DHT22;9641;51.494;6.670;2023-06-22T10:21:31;25.10;1.00
19017;DHT22;9641;51.494;6.670;2023-06-22T10:23:59;25.10;8.70
19017;DHT22;9641;51.494;6.670;2023-06-22T10:26:31;25.30;1.00
19017;DHT22;9641;51.494;6.670;2023-06-22T10:28:58;25.30;1.00
19017;DHT22;9641;51.494;6.670;2023-06-22T10:31:25;25.30;1.00
19017;DHT22;9641;51.494;6.670;2023-06-22T10:33:53;25.30;1.00
19017;DHT22;9641;51.494;6.670;2023-06-22T10:36:22;25.50;1.00
19017;DHT22;9641;51.494;6.670;2023-06-22T10:38:49;25.60;1.00
19017;DHT22;9641;51.494;6.670;2023-06-22T10:41:19;25.70;1.00
19017;DHT22;9641;51.494;6.670;2023-06-22T10:43:46;25.70;1.00
19017;DHT22;9641;51.494;6.670;2023-06-22T10:46:12;25.80;1.00
19017;DHT22;9641;51.494;6.670;2023-06-22T10:48:39;25.70;1.00
19017;DHT22;9641;51.494;6.670;2023-06-22T10:51:06;25.60;1.00
19017;DHT22;9641;51.494;6.670;2023-06-22T10:53:34;25.30;1.00
19017;DHT22;9641;51.494;6.670;2023-06-22T10:56:01;25.20;1.00
19017;DHT22;9641;51.494;6.670;2023-06-22T10:58:28;25.00;1.00
19017;DHT22;9641;51.494;6.670;2023-06-22T11:00:55;24.80;29.20
19017;DHT22;9641;51.494;6.670;2023-06-22T11:03:22;24.60;94.80
19017;DHT22;9641;51.494;6.670;2023-06-22T11:05:49;24.40;99.90
19017;DHT22;9641;51.494;6.670;2023-06-22T11:08:16;24.20;99.90
19017;DHT22;9641;51.494;6.670;2023-06-22T11:10:44;24.00;99.90
19017;DHT22;9641;51.494;6.670;2023-06-22T11:13:11;23.90;99.90
19017;DHT22;9641;51.494;6.670;2023-06-22T11:15:39;23.90;99.90
19017;DHT22;9641;51.494;6.670;2023-06-22T11:18:06;23.90;99.90
19017;DHT22;9641;51.494;6.670;2023-06-22T11:20:33;23.90;99.90
19017;DHT22;9641;51.494;6.670;2023-06-22T11:23:04;23.90;99.90
19017;DHT22;9641;51.494;6.670;2023-06-22T11:25:32;23.90;99.90
19017;DHT22;9641;51.494;6.670;2023-06-22T11:28:02;24.00;99.90
19017;DHT22;9641;51.494;6.670;2023-06-22T11:30:29;24.00;99.90
19017;DHT22;9641;51.494;6.670;2023-06-22T11:32:56;24.00;99.90
19017;DHT22;9641;51.494;6.670;2023-06-22T11:35:24;24.00;99.90
19017;DHT22;9641;51.494;6.670;2023-06-22T11:37:51;24.00;99.90
19017;DHT22;9641;51.494;6.670;2023-06-22T11:40:18;24.00;99.90
19017;DHT22;9641;51.494;6.670;2023-06-22T11:42:44;23.90;99.90
19017;DHT22;9641;51.494;6.670;2023-06-22T11:45:13;23.80;99.90
19017;DHT22;9641;51.494;6.670;2023-06-22T11:47:40;23.60;99.90
19017;DHT22;9641;51.494;6.670;2023-06-22T11:50:07;23.50;99.90
19017;DHT22;9641;51.494;6.670;2023-06-22T11:52:34;23.40;99.90
19017;DHT22;9641;51.494;6.670;2023-06-22T11:55:02;23.40;99.90
19017;DHT22;9641;51.494;6.670;2023-06-22T11:57:33;23.30;99.90
19017;DHT22;9641;51.494;6.670;2023-06-22T12:00:00;23.30;99.90
19017;DHT22;9641;51.494;6.670;2023-06-22T12:02:33;23.20;99.90
19017;DHT22;9641;51.494;6.670;2023-06-22T12:05:00;23.00;99.90
19017;DHT22;9641;51.494;6.670;2023-06-22T12:07:30;23.00;99.90
19017;DHT22;9641;51.494;6.670;2023-06-22T12:09:57;22.90;99.90
19017;DHT22;9641;51.494;6.670;2023-06-22T12:12:24;22.90;99.90
19017;DHT22;9641;51.494;6.670;2023-06-22T12:14:51;22.80;99.90
19017;DHT22;9641;51.494;6.670;2023-06-22T12:17:18;22.80;99.90
19017;DHT22;9641;51.494;6.670;2023-06-22T12:19:46;22.80;99.90
19017;DHT22;9641;51.494;6.670;2023-06-22T12:22:13;22.80;99.90
19017;DHT22;9641;51.494;6.670;2023-06-22T12:24:40;22.80;99.90
19017;DHT22;9641;51.494;6.670;2023-06-22T12:27:07;22.90;99.90
19017;DHT22;9641;51.494;6.670;2023-06-22T12:29:35;23.10;99.90
19017;DHT22;9641;51.494;6.670;2023-06-22T12:32:03;23.50;99.90
19017;DHT22;9641;51.494;6.670;2023-06-22T12:34:30;24.10;99.90
19017;DHT22;9641;51.494;6.670;2023-06-22T12:36:58;24.90;99.90
19017;DHT22;9641;51.494;6.670;2023-06-22T12:39:25;25.60;99.90
19017;DHT22;9641;51.494;6.670;2023-06-22T12:41:52;26.00;99.90
19017;DHT22;9641;51.494;6.670;2023-06-22T12:44:21;26.10;99.90
19017;DHT22;9641;51.494;6.670;2023-06-22T12:46:53;25.80;99.90
19017;DHT22;9641;51.494;6.670;2023-06-22T12:49:25;25.60;99.90
19017;DHT22;9641;51.494;6.670;2023-06-22T12:52:12;25.50;99.90
19017;DHT22;9641;51.494;6.670;2023-06-22T12:54:41;25.40;99.90
19017;DHT22;9641;51.494;6.670;2023-06-22T12:57:08;25.50;99.90
19017;DHT22;9641;51.494;6.670;2023-06-22T12:59:45;25.80;99.90
19017;DHT22;9641;51.494;6.670;2023-06-22T13:02:12;25.90;99.90
19017;DHT22;9641;51.494;6.670;2023-06-22T13:04:39;25.80;99.90
19017;DHT22;9641;51.494;6.670;2023-06-22T13:07:06;25.70;99.90
19017;DHT22;9641;51.494;6.670;2023-06-22T13:09:36;25.70;99.90
19017;DHT22;9641;51.494;6.670;2023-06-22T13:12:14;25.60;99.90
19017;DHT22;9641;51.494;6.670;2023-06-22T13:15:18;25.80;99.90
19017;DHT22;9641;51.494;6.670;2023-06-22T13:17:44;25.90;99.90
19017;DHT22;9641;51.494;6.670;2023-06-22T13:20:21;25.70;99.90
19017;DHT22;9641;51.494;6.670;2023-06-22T13:22:50;25.60;99.90
19017;DHT22;9641;51.494;6.670;2023-06-22T13:25:18;25.70;99.90
19017;DHT22;9641;51.494;6.670;2023-06-22T13:27:48;25.60;99.90
19017;DHT22;9641;51.494;6.670;2023-06-22T13:30:16;25.40;99.90
19017;DHT22;9641;51.494;6.670;2023-06-22T13:32:45;25.20;99.90
19017;DHT22;9641;51.494;6.670;2023-06-22T13:35:12;25.00;99.90
19017;DHT22;9641;51.494;6.670;2023-06-22T13:37:39;24.80;99.90
19017;DHT22;9641;51.494;6.670;2023-06-22T13:40:07;24.60;99.90
19017;DHT22;9641;51.494;6.670;2023-06-22T13:42:35;24.30;99.90
19017;DHT22;9641;51.494;6.670;2023-06-22T13:45:03;24.10;99.90
19017;DHT22;9641;51.494;6.670;2023-06-22T13:47:31;24.10;99.90
19017;DHT22;9641;51.494;6.670;2023-06-22T13:49:58;24.00;99.90
19017;DHT22;9641;51.494;6.670;2023-06-22T13:52:29;24.00;99.90
19017;DHT22;9641;51.494;6.670;2023-06-22T13:54:56;24.00;99.90
19017;DHT22;9641;51.494;6.670;2023-06-22T13:57:23;24.10;99.90
19017;DHT22;9641;51.494;6.670;2023-06-22T13:59:52;24.20;99.90
19017;DHT22;9641;51.494;6.670;2023-06-22T14:02:19;24.30;99.90
19017;DHT22;9641;51.494;6.670;2023-06-22T14:04:46;24.30;99.90
19017;DHT22;9641;51.494;6.670;2023-06-22T14:07:13;24.10;99.90
19017;DHT22;9641;51.494;6.670;2023-06-22T14:09:39;24.00;99.90
19017;DHT22;9641;51.494;6.670;2023-06-22T14:12:07;23.90;99.90
19017;DHT22;9641;51.494;6.670;2023-06-22T14:14:34;23.80;99.90
19017;DHT22;9641;51.494;6.670;2023-06-22T14:17:03;23.80;99.90
19017;DHT22;9641;51.494;6.670;2023-06-22T14:19:31;23.80;99.90
19017;DHT22;9641;51.494;6.670;2023-06-22T14:21:57;23.80;99.90
19017;DHT22;9641;51.494;6.670;2023-06-22T14:24:24;23.70;99.90
19017;DHT22;9641;51.494;6.670;2023-06-22T14:26:51;23.60;99.90
19017;DHT22;9641;51.494;6.670;2023-06-22T14:29:18;23.70;99.90
19017;DHT22;9641;51.494;6.670;2023-06-22T14:31:46;23.80;99.90
19017;DHT22;9641;51.494;6.670;2023-06-22T14:34:14;23.80;99.90
19017;DHT22;9641;51.494;6.670;2023-06-22T14:36:41;23.80;99.90
19017;DHT22;9641;51.494;6.670;2023-06-22T14:39:08;23.70;99.90
19017;DHT22;9641;51.494;6.670;2023-06-22T14:41:35;23.70;99.90
19017;DHT22;9641;51.494;6.670;2023-06-22T14:44:02;23.70;99.90
19017;DHT22;9641;51.494;6.670;2023-06-22T14:46:29;23.60;99.90
19017;DHT22;9641;51.494;6.670;2023-06-22T14:48:56;23.60;99.90
19017;DHT22;9641;51.494;6.670;2023-06-22T14:51:24;23.60;99.90
19017;DHT22;9641;51.494;6.670;2023-06-22T14:53:51;23.50;99.90
19017;DHT22;9641;51.494;6.670;2023-06-22T14:56:18;23.50;99.90
19017;DHT22;9641;51.494;6.670;2023-06-22T14:58:45;23.40;99.90
19017;DHT22;9641;51.494;6.670;2023-06-22T15:01:12;23.30;99.90
19017;DHT22;9641;51.494;6.670;2023-06-22T15:03:39;23.20;99.90
19017;DHT22;9641;51.494;6.670;2023-06-22T15:06:06;23.20;99.90
19017;DHT22;9641;51.494;6.670;2023-06-22T15:08:34;23.00;99.90
19017;DHT22;9641;51.494;6.670;2023-06-22T15:11:01;22.90;99.90
19017;DHT22;9641;51.494;6.670;2023-06-22T15:13:29;22.90;99.90
19017;DHT22;9641;51.494;6.670;2023-06-22T15:15:58;22.90;99.90
19017;DHT22;9641;51.494;6.670;2023-06-22T15:18:25;22.90;99.90
19017;DHT22;9641;51.494;6.670;2023-06-22T15:20:52;22.90;99.90
19017;DHT22;9641;51.494;6.670;2023-06-22T15:23:19;22.90;99.90
19017;DHT22;9641;51.494;6.670;2023-06-22T15:25:47;22.90;99.90
19017;DHT22;9641;51.494;6.670;2023-06-22T15:28:14;22.90;99.90
19017;DHT22;9641;51.494;6.670;2023-06-22T15:30:41;22.80;99.90
19017;DHT22;9641;51.494;6.670;2023-06-22T15:33:08;22.70;99.90
19017;DHT22;9641;51.494;6.670;2023-06-22T15:35:35;22.50;99.90
19017;DHT22;9641;51.494;6.670;2023-06-22T15:38:02;22.40;99.90
19017;DHT22;9641;51.494;6.670;2023-06-22T15:40:29;22.30;99.90
19017;DHT22;9641;51.494;6.670;2023-06-22T15:42:58;22.20;99.90
19017;DHT22;9641;51.494;6.670;2023-06-22T15:45:24;22.10;99.90
19017;DHT22;9641;51.494;6.670;2023-06-22T15:47:51;22.10;99.90
19017;DHT22;9641;51.494;6.670;2023-06-22T15:50:18;22.00;99.90
19017;DHT22;9641;51.494;6.670;2023-06-22T15:52:46;22.00;99.90
19017;DHT22;9641;51.494;6.670;2023-06-22T15:55:16;22.00;99.90